map of DTM home
DTM - Airport
Location
City:  Dortmund, North Rhine-Westphalia, Germany
Name:Wickede
ICAO:EDLW
IATA:DTM

Details
Type:Airport (Flugplatz, Airfield)
Use:Public/Civil
Latitude:5131'06"N (51.518314)
Longitude:736'44"E (7.612242)
Datum:WGS 1984
Elevation:425 ft (130 m)
Variation:2.36E (WMM2015v2 magnetic declination)
0.18 annual change
Runways:1
Longest:6562 × 148 ft (2000 × 45 m), paved

Time
Time Zone:UTC+1 (DST+2)
Local Time:

Weather
METAR:EDLW 041350Z 20014KT CAVOK 04/M02 Q1024
TAF:EDLW 041100Z 0412/0512 21014KT CAVOK
BECMG 0500/0503 21008KT PROB30
TEMPO 0501/0510 BKN014

Related Locations
Nearby:
Farthest:CHT: 11866 mi / 19096 km
Waitangi [Tuuta], CIT, NZ

Find:

   beyond  
but within

Other Information
Maps:
NOTAMs:
Links:
Sources:

  
  • flag of Germany
  • flag of North Rhine-Westphalia
  • flag of Dortmund
  

Sectional Chart

Flight Planning
at skyvector.com

Satellite Image

Google Maps Satellite view

 

Copyright © 2004-2019 Karl L. Swartz. All rights reserved.
The Great Circle Mapper name and logo are trademarks of the Great Circle Mapper.
All other trademarks mentioned herein belong to their respective owners.
Please see credits for attibutions and further copyright information.

  Follow gcmap on Facebook Follow gcmap on Twitter GCmap on LinkedIn

hCard Microformat

Geo Microformat